sensor_id;sensor_type;location;lat;lon;timestamp;temperature;humidity
37594;DHT22;23441;50.856;6.076;2023-10-13T00:01:54;17.60;99.90
37594;DHT22;23441;50.856;6.076;2023-10-13T00:04:23;17.60;99.90
37594;DHT22;23441;50.856;6.076;2023-10-13T00:06:51;17.50;99.90
37594;DHT22;23441;50.856;6.076;2023-10-13T00:09:17;17.50;99.90
37594;DHT22;23441;50.856;6.076;2023-10-13T00:11:44;17.50;99.90
37594;DHT22;23441;50.856;6.076;2023-10-13T00:14:12;17.50;99.90
37594;DHT22;23441;50.856;6.076;2023-10-13T00:16:42;17.40;99.90
37594;DHT22;23441;50.856;6.076;2023-10-13T00:19:07;17.40;99.90
37594;DHT22;23441;50.856;6.076;2023-10-13T00:21:35;17.40;99.90
37594;DHT22;23441;50.856;6.076;2023-10-13T00:24:01;17.50;99.90
37594;DHT22;23441;50.856;6.076;2023-10-13T00:26:31;17.40;99.90
37594;DHT22;23441;50.856;6.076;2023-10-13T00:29:02;17.40;99.90
37594;DHT22;23441;50.856;6.076;2023-10-13T00:31:42;17.50;99.90
37594;DHT22;23441;50.856;6.076;2023-10-13T00:34:14;17.50;99.90
37594;DHT22;23441;50.856;6.076;2023-10-13T00:36:54;17.50;99.90
37594;DHT22;23441;50.856;6.076;2023-10-13T00:39:39;17.50;99.90
37594;DHT22;23441;50.856;6.076;2023-10-13T00:42:14;17.60;99.90
37594;DHT22;23441;50.856;6.076;2023-10-13T00:44:51;17.50;99.90
37594;DHT22;23441;50.856;6.076;2023-10-13T00:47:20;17.50;99.90
37594;DHT22;23441;50.856;6.076;2023-10-13T00:50:04;17.50;99.90
37594;DHT22;23441;50.856;6.076;2023-10-13T00:52:31;17.60;99.90
37594;DHT22;23441;50.856;6.076;2023-10-13T00:54:59;17.60;99.90
37594;DHT22;23441;50.856;6.076;2023-10-13T00:57:25;17.60;99.90
37594;DHT22;23441;50.856;6.076;2023-10-13T00:59:58;17.60;99.90
37594;DHT22;23441;50.856;6.076;2023-10-13T01:02:25;17.60;99.90
37594;DHT22;23441;50.856;6.076;2023-10-13T01:05:04;17.50;99.90
37594;DHT22;23441;50.856;6.076;2023-10-13T01:07:30;17.60;99.90
37594;DHT22;23441;50.856;6.076;2023-10-13T01:09:55;17.50;99.90
37594;DHT22;23441;50.856;6.076;2023-10-13T01:12:21;17.50;99.90
37594;DHT22;23441;50.856;6.076;2023-10-13T01:14:50;17.50;99.90
37594;DHT22;23441;50.856;6.076;2023-10-13T01:17:16;17.50;99.90
37594;DHT22;23441;50.856;6.076;2023-10-13T01:19:41;17.50;99.90
37594;DHT22;23441;50.856;6.076;2023-10-13T01:22:11;17.50;99.90
37594;DHT22;23441;50.856;6.076;2023-10-13T01:24:37;17.50;99.90
37594;DHT22;23441;50.856;6.076;2023-10-13T01:27:04;17.50;99.90
37594;DHT22;23441;50.856;6.076;2023-10-13T01:29:47;17.50;99.90
37594;DHT22;23441;50.856;6.076;2023-10-13T01:32:29;17.60;99.90
37594;DHT22;23441;50.856;6.076;2023-10-13T01:34:55;17.60;99.90
37594;DHT22;23441;50.856;6.076;2023-10-13T01:37:21;17.50;99.90
37594;DHT22;23441;50.856;6.076;2023-10-13T01:39:47;17.60;99.90
37594;DHT22;23441;50.856;6.076;2023-10-13T01:42:15;17.60;99.90
37594;DHT22;23441;50.856;6.076;2023-10-13T01:44:45;17.60;99.90
37594;DHT22;23441;50.856;6.076;2023-10-13T01:47:11;17.60;99.90
37594;DHT22;23441;50.856;6.076;2023-10-13T01:49:38;17.50;99.90
37594;DHT22;23441;50.856;6.076;2023-10-13T01:52:13;17.50;99.90
37594;DHT22;23441;50.856;6.076;2023-10-13T01:54:43;17.60;99.90
37594;DHT22;23441;50.856;6.076;2023-10-13T01:57:11;17.60;99.90
37594;DHT22;23441;50.856;6.076;2023-10-13T01:59:49;17.60;99.90
37594;DHT22;23441;50.856;6.076;2023-10-13T02:02:15;17.60;99.90
37594;DHT22;23441;50.856;6.076;2023-10-13T02:04:45;17.60;99.90
37594;DHT22;23441;50.856;6.076;2023-10-13T02:07:22;17.70;99.90
37594;DHT22;23441;50.856;6.076;2023-10-13T02:09:55;17.70;99.90
37594;DHT22;23441;50.856;6.076;2023-10-13T02:12:21;17.60;99.90
37594;DHT22;23441;50.856;6.076;2023-10-13T02:14:54;17.60;99.90
37594;DHT22;23441;50.856;6.076;2023-10-13T02:17:19;17.70;99.90
37594;DHT22;23441;50.856;6.076;2023-10-13T02:19:47;17.60;99.90
37594;DHT22;23441;50.856;6.076;2023-10-13T02:22:13;17.70;99.90
37594;DHT22;23441;50.856;6.076;2023-10-13T02:24:55;17.70;99.90
37594;DHT22;23441;50.856;6.076;2023-10-13T02:27:27;17.70;99.90
37594;DHT22;23441;50.856;6.076;2023-10-13T02:29:52;17.70;99.90
37594;DHT22;23441;50.856;6.076;2023-10-13T02:32:24;17.70;99.90
37594;DHT22;23441;50.856;6.076;2023-10-13T02:34:50;17.70;99.90
37594;DHT22;23441;50.856;6.076;2023-10-13T02:37:15;17.70;99.90
37594;DHT22;23441;50.856;6.076;2023-10-13T02:39:44;17.70;99.90
37594;DHT22;23441;50.856;6.076;2023-10-13T02:42:10;17.60;99.90
37594;DHT22;23441;50.856;6.076;2023-10-13T02:44:49;17.60;99.90
37594;DHT22;23441;50.856;6.076;2023-10-13T02:47:14;17.60;99.90
37594;DHT22;23441;50.856;6.076;2023-10-13T02:49:40;17.60;99.90
37594;DHT22;23441;50.856;6.076;2023-10-13T02:52:12;17.70;99.90
37594;DHT22;23441;50.856;6.076;2023-10-13T02:54:39;17.70;99.90
37594;DHT22;23441;50.856;6.076;2023-10-13T02:57:17;17.70;99.90
37594;DHT22;23441;50.856;6.076;2023-10-13T02:59:44;17.70;99.90
37594;DHT22;23441;50.856;6.076;2023-10-13T03:02:15;17.70;99.90
37594;DHT22;23441;50.856;6.076;2023-10-13T03:04:55;17.80;99.90
37594;DHT22;23441;50.856;6.076;2023-10-13T03:07:37;17.80;99.90
37594;DHT22;23441;50.856;6.076;2023-10-13T03:10:04;17.70;99.90
37594;DHT22;23441;50.856;6.076;2023-10-13T03:12:36;17.80;99.90
37594;DHT22;23441;50.856;6.076;2023-10-13T03:15:03;17.80;99.90
37594;DHT22;23441;50.856;6.076;2023-10-13T03:17:37;17.70;99.90
37594;DHT22;23441;50.856;6.076;2023-10-13T03:20:06;17.80;99.90
37594;DHT22;23441;50.856;6.076;2023-10-13T03:22:32;17.80;99.90
37594;DHT22;23441;50.856;6.076;2023-10-13T03:24:59;17.70;99.90
37594;DHT22;23441;50.856;6.076;2023-10-13T03:27:38;17.80;99.90
37594;DHT22;23441;50.856;6.076;2023-10-13T03:30:07;17.80;99.90
37594;DHT22;23441;50.856;6.076;2023-10-13T03:32:39;17.80;99.90
37594;DHT22;23441;50.856;6.076;2023-10-13T03:35:09;17.80;99.90
37594;DHT22;23441;50.856;6.076;2023-10-13T03:37:53;17.90;99.90
37594;DHT22;23441;50.856;6.076;2023-10-13T03:40:19;17.90;99.90
37594;DHT22;23441;50.856;6.076;2023-10-13T03:42:56;17.80;99.90
37594;DHT22;23441;50.856;6.076;2023-10-13T03:45:44;17.80;99.90
37594;DHT22;23441;50.856;6.076;2023-10-13T03:48:13;17.90;99.90
37594;DHT22;23441;50.856;6.076;2023-10-13T03:51:01;17.90;99.90
37594;DHT22;23441;50.856;6.076;2023-10-13T03:53:35;17.90;99.90
37594;DHT22;23441;50.856;6.076;2023-10-13T03:56:02;17.80;99.90
37594;DHT22;23441;50.856;6.076;2023-10-13T03:58:35;17.80;99.90
37594;DHT22;23441;50.856;6.076;2023-10-13T04:01:01;17.80;99.90
37594;DHT22;23441;50.856;6.076;2023-10-13T04:03:29;17.80;99.90
37594;DHT22;23441;50.856;6.076;2023-10-13T04:06:00;17.70;99.90
37594;DHT22;23441;50.856;6.076;2023-10-13T04:08:32;17.70;99.90
37594;DHT22;23441;50.856;6.076;2023-10-13T04:11:13;17.70;99.90
37594;DHT22;23441;50.856;6.076;2023-10-13T04:13:57;17.70;99.90
37594;DHT22;23441;50.856;6.076;2023-10-13T04:17:02;17.70;99.90
37594;DHT22;23441;50.856;6.076;2023-10-13T04:19:37;17.60;99.90
37594;DHT22;23441;50.856;6.076;2023-10-13T04:22:22;17.60;99.90
37594;DHT22;23441;50.856;6.076;2023-10-13T04:25:08;17.60;99.90
37594;DHT22;23441;50.856;6.076;2023-10-13T04:27:53;17.70;99.90
37594;DHT22;23441;50.856;6.076;2023-10-13T04:30:50;17.70;99.90
37594;DHT22;23441;50.856;6.076;2023-10-13T04:33:41;17.70;99.90
37594;DHT22;23441;50.856;6.076;2023-10-13T04:36:27;17.70;99.90
37594;DHT22;23441;50.856;6.076;2023-10-13T04:38:58;17.70;99.90
37594;DHT22;23441;50.856;6.076;2023-10-13T04:41:34;17.70;99.90
37594;DHT22;23441;50.856;6.076;2023-10-13T04:44:17;17.70;99.90
37594;DHT22;23441;50.856;6.076;2023-10-13T04:46:48;17.80;99.90
37594;DHT22;23441;50.856;6.076;2023-10-13T04:49:14;17.80;99.90
37594;DHT22;23441;50.856;6.076;2023-10-13T04:52:04;17.80;99.90
37594;DHT22;23441;50.856;6.076;2023-10-13T04:54:33;17.80;99.90
37594;DHT22;23441;50.856;6.076;2023-10-13T04:57:11;17.80;99.90
37594;DHT22;23441;50.856;6.076;2023-10-13T04:59:59;17.90;99.90
37594;DHT22;23441;50.856;6.076;2023-10-13T05:02:38;18.00;99.90
37594;DHT22;23441;50.856;6.076;2023-10-13T05:05:14;18.00;99.90
37594;DHT22;23441;50.856;6.076;2023-10-13T05:07:44;18.00;99.90
37594;DHT22;23441;50.856;6.076;2023-10-13T05:10:29;18.10;99.90
37594;DHT22;23441;50.856;6.076;2023-10-13T05:13:14;18.00;99.90
37594;DHT22;23441;50.856;6.076;2023-10-13T05:15:58;18.00;99.90
37594;DHT22;23441;50.856;6.076;2023-10-13T05:18:42;18.00;99.90
37594;DHT22;23441;50.856;6.076;2023-10-13T05:21:26;18.00;99.90
37594;DHT22;23441;50.856;6.076;2023-10-13T05:24:10;17.90;99.90
37594;DHT22;23441;50.856;6.076;2023-10-13T05:26:55;18.00;99.90
37594;DHT22;23441;50.856;6.076;2023-10-13T05:29:45;18.00;99.90
37594;DHT22;23441;50.856;6.076;2023-10-13T05:32:29;17.90;99.90
37594;DHT22;23441;50.856;6.076;2023-10-13T05:35:14;18.00;99.90
37594;DHT22;23441;50.856;6.076;2023-10-13T05:37:59;18.00;99.90
37594;DHT22;23441;50.856;6.076;2023-10-13T05:41:02;18.00;99.90
37594;DHT22;23441;50.856;6.076;2023-10-13T05:43:46;18.00;99.90
37594;DHT22;23441;50.856;6.076;2023-10-13T05:46:31;18.00;99.90
37594;DHT22;23441;50.856;6.076;2023-10-13T05:49:04;18.00;99.90
37594;DHT22;23441;50.856;6.076;2023-10-13T05:51:35;18.00;99.90
37594;DHT22;23441;50.856;6.076;2023-10-13T05:54:03;18.00;99.90
37594;DHT22;23441;50.856;6.076;2023-10-13T05:56:48;18.10;99.90
37594;DHT22;23441;50.856;6.076;2023-10-13T05:59:34;18.10;99.90
37594;DHT22;23441;50.856;6.076;2023-10-13T06:02:20;18.10;99.90
37594;DHT22;23441;50.856;6.076;2023-10-13T06:05:08;18.10;99.90
37594;DHT22;23441;50.856;6.076;2023-10-13T06:07:52;18.20;99.90
37594;DHT22;23441;50.856;6.076;2023-10-13T06:10:37;18.20;99.90
37594;DHT22;23441;50.856;6.076;2023-10-13T06:13:22;18.20;99.90
37594;DHT22;23441;50.856;6.076;2023-10-13T06:16:08;18.30;99.90
37594;DHT22;23441;50.856;6.076;2023-10-13T06:18:52;18.30;99.90
37594;DHT22;23441;50.856;6.076;2023-10-13T06:21:37;18.30;99.90
37594;DHT22;23441;50.856;6.076;2023-10-13T06:24:21;18.30;99.90
37594;DHT22;23441;50.856;6.076;2023-10-13T06:27:05;18.40;99.90
37594;DHT22;23441;50.856;6.076;2023-10-13T06:29:50;18.40;99.90
37594;DHT22;23441;50.856;6.076;2023-10-13T06:32:15;18.30;99.90
37594;DHT22;23441;50.856;6.076;2023-10-13T06:34:42;18.40;99.90
37594;DHT22;23441;50.856;6.076;2023-10-13T06:37:14;18.40;99.90
37594;DHT22;23441;50.856;6.076;2023-10-13T06:40:09;18.40;99.90
37594;DHT22;23441;50.856;6.076;2023-10-13T06:42:58;18.50;99.90
37594;DHT22;23441;50.856;6.076;2023-10-13T06:45:43;18.50;99.90
37594;DHT22;23441;50.856;6.076;2023-10-13T06:48:16;18.60;99.90
37594;DHT22;23441;50.856;6.076;2023-10-13T06:50:52;18.60;99.90
37594;DHT22;23441;50.856;6.076;2023-10-13T06:53:21;18.60;99.90
37594;DHT22;23441;50.856;6.076;2023-10-13T06:55:47;18.60;99.90
37594;DHT22;23441;50.856;6.076;2023-10-13T06:58:15;18.70;99.90
37594;DHT22;23441;50.856;6.076;2023-10-13T07:00:43;18.60;99.90
37594;DHT22;23441;50.856;6.076;2023-10-13T07:03:29;18.70;99.90
37594;DHT22;23441;50.856;6.076;2023-10-13T07:05:54;18.70;99.90
37594;DHT22;23441;50.856;6.076;2023-10-13T07:08:24;18.70;99.90
37594;DHT22;23441;50.856;6.076;2023-10-13T07:10:52;18.80;99.90
37594;DHT22;23441;50.856;6.076;2023-10-13T07:13:37;18.80;99.90
37594;DHT22;23441;50.856;6.076;2023-10-13T07:16:04;18.80;99.90
37594;DHT22;23441;50.856;6.076;2023-10-13T07:18:39;18.80;99.90
37594;DHT22;23441;50.856;6.076;2023-10-13T07:21:16;18.80;99.90
37594;DHT22;23441;50.856;6.076;2023-10-13T07:23:41;18.80;99.90
37594;DHT22;23441;50.856;6.076;2023-10-13T07:26:25;18.80;99.90
37594;DHT22;23441;50.856;6.076;2023-10-13T07:28:52;18.90;99.90
37594;DHT22;23441;50.856;6.076;2023-10-13T07:31:18;18.90;99.90
37594;DHT22;23441;50.856;6.076;2023-10-13T07:33:47;18.90;99.90
37594;DHT22;23441;50.856;6.076;2023-10-13T07:36:12;18.90;99.90
37594;DHT22;23441;50.856;6.076;2023-10-13T07:38:43;18.90;99.90
37594;DHT22;23441;50.856;6.076;2023-10-13T07:41:14;18.90;99.90
37594;DHT22;23441;50.856;6.076;2023-10-13T07:43:42;18.90;99.90
37594;DHT22;23441;50.856;6.076;2023-10-13T07:46:08;19.00;99.90
37594;DHT22;23441;50.856;6.076;2023-10-13T07:48:38;19.00;99.90
37594;DHT22;23441;50.856;6.076;2023-10-13T07:51:08;19.20;99.90
37594;DHT22;23441;50.856;6.076;2023-10-13T07:53:47;19.20;99.90
37594;DHT22;23441;50.856;6.076;2023-10-13T07:56:19;19.30;99.90
37594;DHT22;23441;50.856;6.076;2023-10-13T07:58:46;19.40;99.90
37594;DHT22;23441;50.856;6.076;2023-10-13T08:01:21;19.50;99.90
37594;DHT22;23441;50.856;6.076;2023-10-13T08:03:47;19.60;99.90
37594;DHT22;23441;50.856;6.076;2023-10-13T08:06:16;19.60;99.90
37594;DHT22;23441;50.856;6.076;2023-10-13T08:08:42;19.60;99.90
37594;DHT22;23441;50.856;6.076;2023-10-13T08:11:10;19.60;99.90
37594;DHT22;23441;50.856;6.076;2023-10-13T08:13:56;19.80;99.90
37594;DHT22;23441;50.856;6.076;2023-10-13T08:16:25;20.00;99.90
37594;DHT22;23441;50.856;6.076;2023-10-13T08:19:13;20.10;99.90
37594;DHT22;23441;50.856;6.076;2023-10-13T08:21:43;20.00;99.90
37594;DHT22;23441;50.856;6.076;2023-10-13T08:24:17;20.00;99.90
37594;DHT22;23441;50.856;6.076;2023-10-13T08:26:51;19.90;99.90
37594;DHT22;23441;50.856;6.076;2023-10-13T08:29:23;19.90;99.90
37594;DHT22;23441;50.856;6.076;2023-10-13T08:31:51;19.90;99.90
37594;DHT22;23441;50.856;6.076;2023-10-13T08:34:36;20.00;99.90
37594;DHT22;23441;50.856;6.076;2023-10-13T08:37:25;20.10;99.90
37594;DHT22;23441;50.856;6.076;2023-10-13T08:39:55;20.20;99.90
37594;DHT22;23441;50.856;6.076;2023-10-13T08:42:32;20.20;99.90
37594;DHT22;23441;50.856;6.076;2023-10-13T08:47:58;20.20;99.90
37594;DHT22;23441;50.856;6.076;2023-10-13T08:56:03;20.40;99.90
37594;DHT22;23441;50.856;6.076;2023-10-13T08:58:41;20.40;99.90
37594;DHT22;23441;50.856;6.076;2023-10-13T09:01:26;20.50;99.90
37594;DHT22;23441;50.856;6.076;2023-10-13T09:04:12;20.50;99.90
37594;DHT22;23441;50.856;6.076;2023-10-13T09:06:54;20.50;99.90
37594;DHT22;23441;50.856;6.076;2023-10-13T09:09:27;20.60;99.90
37594;DHT22;23441;50.856;6.076;2023-10-13T09:11:59;20.70;99.90
37594;DHT22;23441;50.856;6.076;2023-10-13T09:14:39;20.80;99.90
37594;DHT22;23441;50.856;6.076;2023-10-13T09:17:10;20.80;99.90
37594;DHT22;23441;50.856;6.076;2023-10-13T09:20:03;20.80;99.90
37594;DHT22;23441;50.856;6.076;2023-10-13T09:22:54;20.80;99.90
37594;DHT22;23441;50.856;6.076;2023-10-13T09:25:37;20.80;99.90
37594;DHT22;23441;50.856;6.076;2023-10-13T09:30:45;21.10;99.90
37594;DHT22;23441;50.856;6.076;2023-10-13T09:33:11;21.30;99.90
37594;DHT22;23441;50.856;6.076;2023-10-13T09:35:46;21.40;99.90
37594;DHT22;23441;50.856;6.076;2023-10-13T09:38:18;21.60;99.90
37594;DHT22;23441;50.856;6.076;2023-10-13T09:40:44;21.70;99.90
37594;DHT22;23441;50.856;6.076;2023-10-13T09:43:17;21.90;99.90
37594;DHT22;23441;50.856;6.076;2023-10-13T09:45:48;22.10;99.90
37594;DHT22;23441;50.856;6.076;2023-10-13T09:48:44;22.20;99.90
37594;DHT22;23441;50.856;6.076;2023-10-13T09:51:18;22.10;99.90
37594;DHT22;23441;50.856;6.076;2023-10-13T09:54:00;22.00;99.90
37594;DHT22;23441;50.856;6.076;2023-10-13T09:56:37;22.00;99.90
37594;DHT22;23441;50.856;6.076;2023-10-13T09:59:19;22.00;99.90
37594;DHT22;23441;50.856;6.076;2023-10-13T10:01:46;21.90;99.90
37594;DHT22;23441;50.856;6.076;2023-10-13T10:04:22;21.90;99.90
37594;DHT22;23441;50.856;6.076;2023-10-13T10:06:59;21.90;99.90
37594;DHT22;23441;50.856;6.076;2023-10-13T10:09:33;22.00;99.90
37594;DHT22;23441;50.856;6.076;2023-10-13T10:17:28;22.40;99.90
37594;DHT22;23441;50.856;6.076;2023-10-13T10:19:56;22.50;99.90
37594;DHT22;23441;50.856;6.076;2023-10-13T10:22:32;22.50;99.90
37594;DHT22;23441;50.856;6.076;2023-10-13T10:25:09;22.50;99.90
37594;DHT22;23441;50.856;6.076;2023-10-13T10:27:57;22.60;99.90
37594;DHT22;23441;50.856;6.076;2023-10-13T10:30:29;22.60;99.90
37594;DHT22;23441;50.856;6.076;2023-10-13T10:32:56;22.70;99.90
37594;DHT22;23441;50.856;6.076;2023-10-13T10:35:26;22.70;99.90
37594;DHT22;23441;50.856;6.076;2023-10-13T10:37:56;22.80;99.90
37594;DHT22;23441;50.856;6.076;2023-10-13T10:41:08;22.90;99.90
37594;DHT22;23441;50.856;6.076;2023-10-13T10:43:39;22.90;99.90
37594;DHT22;23441;50.856;6.076;2023-10-13T10:46:28;23.00;99.90
37594;DHT22;23441;50.856;6.076;2023-10-13T10:49:04;23.00;99.90
37594;DHT22;23441;50.856;6.076;2023-10-13T10:51:36;23.20;99.90
37594;DHT22;23441;50.856;6.076;2023-10-13T10:54:18;23.20;99.90
37594;DHT22;23441;50.856;6.076;2023-10-13T10:56:44;23.20;99.90
37594;DHT22;23441;50.856;6.076;2023-10-13T10:59:18;23.10;99.90
37594;DHT22;23441;50.856;6.076;2023-10-13T11:01:46;23.20;99.90
37594;DHT22;23441;50.856;6.076;2023-10-13T11:04:18;23.20;99.90
37594;DHT22;23441;50.856;6.076;2023-10-13T11:06:59;23.10;99.90
37594;DHT22;23441;50.856;6.076;2023-10-13T11:09:32;23.10;99.90
37594;DHT22;23441;50.856;6.076;2023-10-13T11:12:24;23.10;99.90
37594;DHT22;23441;50.856;6.076;2023-10-13T11:15:07;23.00;99.90
37594;DHT22;23441;50.856;6.076;2023-10-13T11:17:49;23.00;99.90
37594;DHT22;23441;50.856;6.076;2023-10-13T11:20:24;23.00;99.90
37594;DHT22;23441;50.856;6.076;2023-10-13T11:23:12;22.90;99.90
37594;DHT22;23441;50.856;6.076;2023-10-13T11:25:38;22.80;99.90
37594;DHT22;23441;50.856;6.076;2023-10-13T11:28:11;22.60;99.90
37594;DHT22;23441;50.856;6.076;2023-10-13T11:30:43;22.60;99.90
37594;DHT22;23441;50.856;6.076;2023-10-13T11:33:15;22.40;99.90
37594;DHT22;23441;50.856;6.076;2023-10-13T11:35:44;22.40;99.90
37594;DHT22;23441;50.856;6.076;2023-10-13T11:38:25;22.40;99.90
37594;DHT22;23441;50.856;6.076;2023-10-13T11:41:00;22.40;99.90
37594;DHT22;23441;50.856;6.076;2023-10-13T11:43:49;22.40;99.90
37594;DHT22;23441;50.856;6.076;2023-10-13T11:46:16;22.50;99.90
37594;DHT22;23441;50.856;6.076;2023-10-13T11:48:49;22.50;99.90
37594;DHT22;23441;50.856;6.076;2023-10-13T11:51:20;22.60;99.90
37594;DHT22;23441;50.856;6.076;2023-10-13T11:53:52;22.60;99.90
37594;DHT22;23441;50.856;6.076;2023-10-13T11:56:18;22.60;99.90
37594;DHT22;23441;50.856;6.076;2023-10-13T11:58:46;22.70;99.90
37594;DHT22;23441;50.856;6.076;2023-10-13T12:01:13;22.80;99.90
37594;DHT22;23441;50.856;6.076;2023-10-13T12:03:42;22.80;99.90
37594;DHT22;23441;50.856;6.076;2023-10-13T12:06:27;22.80;99.90
37594;DHT22;23441;50.856;6.076;2023-10-13T12:09:02;22.90;99.90
37594;DHT22;23441;50.856;6.076;2023-10-13T12:11:50;22.90;99.90
37594;DHT22;23441;50.856;6.076;2023-10-13T12:14:20;23.00;99.90
37594;DHT22;23441;50.856;6.076;2023-10-13T12:17:06;23.00;99.90
37594;DHT22;23441;50.856;6.076;2023-10-13T12:19:36;23.10;99.90
37594;DHT22;23441;50.856;6.076;2023-10-13T12:22:04;23.10;99.90
37594;DHT22;23441;50.856;6.076;2023-10-13T12:24:38;23.00;99.90
37594;DHT22;23441;50.856;6.076;2023-10-13T12:27:08;22.90;99.90
37594;DHT22;23441;50.856;6.076;2023-10-13T12:29:49;22.90;99.90
37594;DHT22;23441;50.856;6.076;2023-10-13T12:32:20;22.90;99.90
37594;DHT22;23441;50.856;6.076;2023-10-13T12:34:56;22.80;99.90
37594;DHT22;23441;50.856;6.076;2023-10-13T12:37:29;22.90;99.90
37594;DHT22;23441;50.856;6.076;2023-10-13T12:40:08;22.90;99.90
37594;DHT22;23441;50.856;6.076;2023-10-13T12:42:52;22.90;99.90
37594;DHT22;23441;50.856;6.076;2023-10-13T12:45:40;22.90;99.90
37594;DHT22;23441;50.856;6.076;2023-10-13T12:48:25;22.90;99.90
37594;DHT22;23441;50.856;6.076;2023-10-13T12:51:09;22.90;99.90
37594;DHT22;23441;50.856;6.076;2023-10-13T12:53:54;23.00;99.90
37594;DHT22;23441;50.856;6.076;2023-10-13T12:56:20;23.10;99.90
37594;DHT22;23441;50.856;6.076;2023-10-13T12:58:52;23.00;99.90
37594;DHT22;23441;50.856;6.076;2023-10-13T13:01:22;22.90;99.90
37594;DHT22;23441;50.856;6.076;2023-10-13T13:03:49;22.80;99.90
37594;DHT22;23441;50.856;6.076;2023-10-13T13:06:19;22.80;99.90
37594;DHT22;23441;50.856;6.076;2023-10-13T13:08:58;22.70;99.90
37594;DHT22;23441;50.856;6.076;2023-10-13T13:11:24;22.70;99.90
37594;DHT22;23441;50.856;6.076;2023-10-13T13:13:50;22.70;99.90
37594;DHT22;23441;50.856;6.076;2023-10-13T13:16:18;22.70;99.90
37594;DHT22;23441;50.856;6.076;2023-10-13T13:18:45;22.70;99.90
37594;DHT22;23441;50.856;6.076;2023-10-13T13:21:11;22.70;99.90
37594;DHT22;23441;50.856;6.076;2023-10-13T13:23:47;22.60;99.90
37594;DHT22;23441;50.856;6.076;2023-10-13T13:26:12;22.50;99.90
37594;DHT22;23441;50.856;6.076;2023-10-13T13:28:46;22.50;99.90
37594;DHT22;23441;50.856;6.076;2023-10-13T13:31:18;22.40;99.90
37594;DHT22;23441;50.856;6.076;2023-10-13T13:33:44;22.50;99.90
37594;DHT22;23441;50.856;6.076;2023-10-13T13:36:10;22.50;99.90
37594;DHT22;23441;50.856;6.076;2023-10-13T13:38:39;22.50;99.90
37594;DHT22;23441;50.856;6.076;2023-10-13T13:41:14;22.40;99.90
37594;DHT22;23441;50.856;6.076;2023-10-13T13:43:46;22.50;99.90
37594;DHT22;23441;50.856;6.076;2023-10-13T13:46:21;22.40;99.90
37594;DHT22;23441;50.856;6.076;2023-10-13T13:48:51;22.30;99.90
37594;DHT22;23441;50.856;6.076;2023-10-13T13:51:23;22.30;99.90
37594;DHT22;23441;50.856;6.076;2023-10-13T13:53:56;22.40;99.90
37594;DHT22;23441;50.856;6.076;2023-10-13T13:56:22;22.40;99.90
37594;DHT22;23441;50.856;6.076;2023-10-13T13:58:52;22.30;99.90
37594;DHT22;23441;50.856;6.076;2023-10-13T14:01:18;22.20;99.90
37594;DHT22;23441;50.856;6.076;2023-10-13T14:03:46;22.10;99.90
37594;DHT22;23441;50.856;6.076;2023-10-13T14:06:19;22.00;99.90
37594;DHT22;23441;50.856;6.076;2023-10-13T14:08:52;22.00;99.90
37594;DHT22;23441;50.856;6.076;2023-10-13T14:11:23;21.90;99.90
37594;DHT22;23441;50.856;6.076;2023-10-13T14:14:07;21.80;99.90
37594;DHT22;23441;50.856;6.076;2023-10-13T14:16:46;21.80;99.90
37594;DHT22;23441;50.856;6.076;2023-10-13T14:19:16;21.80;99.90
37594;DHT22;23441;50.856;6.076;2023-10-13T14:22:01;21.70;99.90
37594;DHT22;23441;50.856;6.076;2023-10-13T14:24:32;21.70;99.90
37594;DHT22;23441;50.856;6.076;2023-10-13T14:27:09;21.70;99.90
37594;DHT22;23441;50.856;6.076;2023-10-13T14:29:38;21.60;99.90
37594;DHT22;23441;50.856;6.076;2023-10-13T14:32:12;21.60;99.90
37594;DHT22;23441;50.856;6.076;2023-10-13T14:34:45;21.60;99.90
37594;DHT22;23441;50.856;6.076;2023-10-13T14:37:13;21.60;99.90
37594;DHT22;23441;50.856;6.076;2023-10-13T14:39:40;21.40;99.90
37594;DHT22;23441;50.856;6.076;2023-10-13T14:42:06;21.50;99.90
37594;DHT22;23441;50.856;6.076;2023-10-13T14:44:33;21.40;99.90
37594;DHT22;23441;50.856;6.076;2023-10-13T14:46:59;21.40;99.90
37594;DHT22;23441;50.856;6.076;2023-10-13T14:49:25;21.50;99.90
37594;DHT22;23441;50.856;6.076;2023-10-13T14:51:50;21.40;99.90
37594;DHT22;23441;50.856;6.076;2023-10-13T14:54:16;21.30;99.90
37594;DHT22;23441;50.856;6.076;2023-10-13T14:56:42;21.40;99.90
37594;DHT22;23441;50.856;6.076;2023-10-13T14:59:08;21.40;99.90
37594;DHT22;23441;50.856;6.076;2023-10-13T15:01:42;21.50;99.90
37594;DHT22;23441;50.856;6.076;2023-10-13T15:04:08;21.50;99.90
37594;DHT22;23441;50.856;6.076;2023-10-13T15:06:34;21.50;99.90
37594;DHT22;23441;50.856;6.076;2023-10-13T15:09:00;21.50;99.90
37594;DHT22;23441;50.856;6.076;2023-10-13T15:11:27;21.50;99.90
37594;DHT22;23441;50.856;6.076;2023-10-13T15:13:53;21.40;99.90
37594;DHT22;23441;50.856;6.076;2023-10-13T15:16:26;21.30;99.90
37594;DHT22;23441;50.856;6.076;2023-10-13T15:18:54;21.40;99.90
37594;DHT22;23441;50.856;6.076;2023-10-13T15:21:26;21.40;99.90
37594;DHT22;23441;50.856;6.076;2023-10-13T15:23:54;21.30;99.90
37594;DHT22;23441;50.856;6.076;2023-10-13T15:26:27;21.20;99.90
37594;DHT22;23441;50.856;6.076;2023-10-13T15:28:54;21.20;99.90
37594;DHT22;23441;50.856;6.076;2023-10-13T15:31:23;21.10;99.90
37594;DHT22;23441;50.856;6.076;2023-10-13T15:34:03;21.10;99.90
37594;DHT22;23441;50.856;6.076;2023-10-13T15:36:35;21.00;99.90
37594;DHT22;23441;50.856;6.076;2023-10-13T15:39:00;21.00;99.90
37594;DHT22;23441;50.856;6.076;2023-10-13T15:41:28;21.00;99.90
37594;DHT22;23441;50.856;6.076;2023-10-13T15:43:55;21.00;99.90
37594;DHT22;23441;50.856;6.076;2023-10-13T15:46:22;21.00;99.90
37594;DHT22;23441;50.856;6.076;2023-10-13T15:48:49;20.90;99.90
37594;DHT22;23441;50.856;6.076;2023-10-13T15:51:15;20.90;99.90
37594;DHT22;23441;50.856;6.076;2023-10-13T15:53:42;20.90;99.90
37594;DHT22;23441;50.856;6.076;2023-10-13T15:56:09;20.90;99.90
37594;DHT22;23441;50.856;6.076;2023-10-13T15:58:47;20.90;99.90
37594;DHT22;23441;50.856;6.076;2023-10-13T16:01:13;20.80;99.90
37594;DHT22;23441;50.856;6.076;2023-10-13T16:03:43;20.80;99.90
37594;DHT22;23441;50.856;6.076;2023-10-13T16:06:12;20.70;99.90
37594;DHT22;23441;50.856;6.076;2023-10-13T16:08:39;20.70;99.90
37594;DHT22;23441;50.856;6.076;2023-10-13T16:11:10;20.60;99.90
37594;DHT22;23441;50.856;6.076;2023-10-13T16:13:42;20.60;99.90
37594;DHT22;23441;50.856;6.076;2023-10-13T16:16:15;20.60;99.90
37594;DHT22;23441;50.856;6.076;2023-10-13T16:18:45;20.50;99.90
37594;DHT22;23441;50.856;6.076;2023-10-13T16:21:12;20.50;99.90
37594;DHT22;23441;50.856;6.076;2023-10-13T16:23:38;20.50;99.90
37594;DHT22;23441;50.856;6.076;2023-10-13T16:26:08;20.40;99.90
37594;DHT22;23441;50.856;6.076;2023-10-13T16:28:35;20.50;99.90